Time;durP1;ratioP1;P1;durP2;ratioP2;P2;SDS_P1;SDS_P2;PMS_P1;PMS_P2;Temp;Humidity;BMP_temperature;BMP_pressure;BME280_temperature;BME280_humidity;BME280_pressure;Samples;Min_cycle;Max_cycle;Signal;HPM_P1;HPM_P2
2022/04/09 00:02:50;;;;;;;9.52;2.45;;;6.30;71.40;;;;;;9188299;19;20383;-64
2022/04/09 00:05:55;;;;;;;12.65;2.03;;;6.30;71.40;;;;;;9184755;19;20018;-65
2022/04/09 00:09:00;;;;;;;19.33;2.65;;;6.30;71.50;;;;;;9184309;19;20569;-65
2022/04/09 00:12:06;;;;;;;15.05;2.40;;;6.30;71.50;;;;;;9188362;19;20418;-64
2022/04/09 00:15:14;;;;;;;10.50;1.88;;;6.30;71.60;;;;;;9185890;19;20014;-65
2022/04/09 00:18:19;;;;;;;14.50;2.25;;;6.30;71.60;;;;;;9186376;19;20021;-64
2022/04/09 00:21:28;;;;;;;7.63;1.75;;;6.20;71.60;;;;;;9186141;19;20475;-64
2022/04/09 00:24:33;;;;;;;15.25;2.20;;;6.30;71.70;;;;;;9183941;19;20051;-64
2022/04/09 00:27:38;;;;;;;17.80;2.20;;;6.30;71.70;;;;;;9188895;19;20018;-64
2022/04/09 00:30:47;;;;;;;11.82;1.90;;;6.20;71.70;;;;;;9185497;19;20011;-64
2022/04/09 00:33:53;;;;;;;12.07;2.03;;;6.20;71.70;;;;;;9187261;19;20030;-65
2022/04/09 00:36:58;;;;;;;10.73;2.00;;;6.20;71.70;;;;;;9181848;19;20018;-65
2022/04/09 00:40:03;;;;;;;12.73;2.20;;;6.20;71.80;;;;;;9184514;19;20355;-64
2022/04/09 00:43:09;;;;;;;16.90;2.22;;;6.10;71.80;;;;;;9184399;19;20021;-64
2022/04/09 00:46:17;;;;;;;12.55;1.73;;;6.20;71.90;;;;;;9182907;19;20030;-65
2022/04/09 00:49:22;;;;;;;11.50;2.13;;;6.20;72.00;;;;;;9183680;19;20018;-64
2022/04/09 00:52:30;;;;;;;15.18;2.15;;;6.10;72.00;;;;;;9184398;19;20010;-65
2022/04/09 00:58:57;;;;;;;13.85;2.08;;;6.10;72.00;;;;;;9186124;19;20011;-65
2022/04/09 01:02:06;;;;;;;13.05;1.80;;;6.10;72.00;;;;;;9180086;19;20018;-65
2022/04/09 01:05:11;;;;;;;10.75;2.05;;;6.10;72.10;;;;;;9185218;19;20438;-64
2022/04/09 01:08:18;;;;;;;13.05;1.95;;;6.10;72.10;;;;;;9182570;19;20927;-65
2022/04/09 01:11:23;;;;;;;16.27;1.92;;;6.10;72.10;;;;;;9185960;19;20418;-64
2022/04/09 01:14:28;;;;;;;8.90;1.83;;;6.10;72.20;;;;;;9183439;19;20066;-64
2022/04/09 01:17:38;;;;;;;11.07;2.65;;;6.10;72.20;;;;;;9183930;19;20018;-64
2022/04/09 01:20:46;;;;;;;9.85;1.90;;;6.10;72.30;;;;;;9184915;19;20519;-64
2022/04/09 01:23:54;;;;;;;13.88;2.25;;;6.10;72.20;;;;;;9183254;19;20017;-65
2022/04/09 01:26:59;;;;;;;12.77;2.28;;;6.10;72.30;;;;;;9181362;19;20489;-64
2022/04/09 01:30:09;;;;;;;6.32;1.85;;;6.10;72.30;;;;;;9184412;19;20293;-64
2022/04/09 01:33:17;;;;;;;12.57;1.63;;;6.10;72.30;;;;;;9182293;19;20018;-64
2022/04/09 01:36:23;;;;;;;9.90;2.03;;;6.00;72.30;;;;;;9178135;19;20074;-64
2022/04/09 01:39:30;;;;;;;13.13;1.65;;;6.10;72.30;;;;;;9185097;19;20573;-64
2022/04/09 01:42:36;;;;;;;12.02;1.98;;;6.00;72.40;;;;;;9182533;19;20014;-65
2022/04/09 01:45:41;;;;;;;7.75;1.45;;;6.00;72.40;;;;;;9182602;19;20023;-65
2022/04/09 01:48:58;;;;;;;12.38;1.60;;;6.00;72.40;;;;;;9183120;19;20022;-64
2022/04/09 01:52:03;;;;;;;12.68;1.92;;;6.00;72.50;;;;;;9182436;19;20011;-64
2022/04/09 01:55:14;;;;;;;13.52;1.50;;;6.00;72.50;;;;;;9182390;19;20463;-64
2022/04/09 01:58:22;;;;;;;9.68;2.03;;;6.00;72.60;;;;;;9180487;19;20014;-64
2022/04/09 02:01:28;;;;;;;10.18;1.52;;;6.00;72.60;;;;;;9184281;19;20018;-64
2022/04/09 02:04:33;;;;;;;14.30;1.30;;;6.00;72.60;;;;;;9182685;19;20023;-64
2022/04/09 02:07:38;;;;;;;13.00;1.83;;;6.00;72.60;;;;;;9179773;19;20025;-65
2022/04/09 02:10:46;;;;;;;10.00;2.42;;;6.00;72.60;;;;;;9181773;19;20352;-64
2022/04/09 02:13:52;;;;;;;8.07;1.40;;;6.00;72.70;;;;;;9179800;19;20014;-65
2022/04/09 02:16:58;;;;;;;8.55;1.48;;;6.00;72.60;;;;;;9180711;19;20368;-64
2022/04/09 02:20:03;;;;;;;11.73;1.92;;;6.00;72.70;;;;;;9180207;19;20483;-64
2022/04/09 02:23:08;;;;;;;13.77;2.03;;;6.00;72.70;;;;;;9182968;19;20050;-65
2022/04/09 02:26:15;;;;;;;12.30;1.85;;;6.10;72.80;;;;;;9181598;19;20010;-64
2022/04/09 02:29:20;;;;;;;9.95;2.20;;;6.00;72.80;;;;;;9180949;19;20010;-64
2022/04/09 02:32:25;;;;;;;8.73;1.40;;;6.10;72.80;;;;;;9181343;19;20029;-64
2022/04/09 02:35:31;;;;;;;9.55;1.63;;;6.00;72.80;;;;;;9176997;19;20015;-65
2022/04/09 02:38:36;;;;;;;7.35;1.42;;;6.00;72.80;;;;;;9180874;19;20496;-65
2022/04/09 02:41:44;;;;;;;6.43;1.33;;;6.10;72.90;;;;;;9180397;19;20018;-63
2022/04/09 02:44:49;;;;;;;12.43;2.15;;;6.00;73.00;;;;;;9180276;19;20026;-64
2022/04/09 02:47:55;;;;;;;7.72;1.42;;;6.00;72.90;;;;;;9178466;19;20019;-64
2022/04/09 02:51:04;;;;;;;14.65;2.58;;;6.10;73.00;;;;;;9180450;19;20018;-64
2022/04/09 02:54:15;;;;;;;9.63;1.23;;;6.00;72.90;;;;;;9177421;19;20018;-64
2022/04/09 02:57:26;;;;;;;9.77;2.05;;;6.00;73.00;;;;;;9180524;19;20047;-64
2022/04/09 03:00:31;;;;;;;6.82;1.50;;;6.00;73.00;;;;;;9180323;19;20018;-64
2022/04/09 03:03:40;;;;;;;10.88;1.60;;;6.00;73.00;;;;;;9179386;19;20018;-64
2022/04/09 03:06:45;;;;;;;7.55;1.40;;;6.00;73.10;;;;;;9178773;19;20097;-65
2022/04/09 03:09:52;;;;;;;8.93;1.55;;;6.00;73.10;;;;;;9181407;19;20355;-64
2022/04/09 03:13:00;;;;;;;3.70;1.10;;;6.00;73.20;;;;;;9181312;19;20023;-65
2022/04/09 03:16:06;;;;;;;6.88;1.35;;;6.10;73.30;;;;;;9181668;19;20010;-64
2022/04/09 03:19:11;;;;;;;4.38;1.10;;;6.10;73.30;;;;;;9179151;19;20047;-64
2022/04/09 03:22:16;;;;;;;4.93;1.15;;;6.10;73.30;;;;;;9179949;19;20030;-64
2022/04/09 03:25:22;;;;;;;5.80;1.20;;;6.10;73.30;;;;;;9188833;19;20018;-65
2022/04/09 03:28:34;;;;;;;5.30;0.95;;;6.10;73.30;;;;;;9185203;19;20029;-65
2022/04/09 03:31:39;;;;;;;1.88;0.90;;;6.10;73.40;;;;;;9188149;19;20018;-65
2022/04/09 03:34:48;;;;;;;5.32;1.10;;;6.10;73.30;;;;;;9187805;19;20022;-63
2022/04/09 03:37:53;;;;;;;6.55;1.20;;;6.10;73.30;;;;;;9184280;19;20010;-64
2022/04/09 03:41:04;;;;;;;5.65;1.23;;;6.10;73.40;;;;;;9187378;19;20041;-65
2022/04/09 03:44:27;;;;;;;5.38;1.25;;;6.10;73.30;;;;;;9186452;19;20015;-64
2022/04/09 03:47:35;;;;;;;9.65;2.58;;;6.10;73.30;;;;;;9185686;19;20013;-64
2022/04/09 03:50:46;;;;;;;5.07;1.40;;;6.10;73.30;;;;;;9186320;19;20027;-64
2022/04/09 03:53:54;;;;;;;15.20;1.45;;;6.10;74.00;;;;;;9187893;19;20589;-65
2022/04/09 03:57:03;;;;;;;9.77;1.67;;;6.10;73.40;;;;;;9187385;19;20014;-64
2022/04/09 04:00:23;;;;;;;7.97;1.70;;;6.10;73.40;;;;;;9186840;19;20461;-64
2022/04/09 04:03:31;;;;;;;10.27;1.50;;;6.10;73.40;;;;;;9186468;19;20018;-65
2022/04/09 04:06:36;;;;;;;8.73;1.50;;;6.10;73.50;;;;;;9187232;19;20018;-64
2022/04/09 04:09:42;;;;;;;13.32;2.03;;;6.00;73.30;;;;;;9183535;19;20467;-64
2022/04/09 04:12:47;;;;;;;10.82;1.52;;;6.00;73.40;;;;;;9188025;19;20018;-64
2022/04/09 04:15:59;;;;;;;7.88;1.67;;;6.00;73.50;;;;;;9185799;19;20025;-64
2022/04/09 04:19:04;;;;;;;10.00;2.00;;;6.00;73.60;;;;;;9186603;19;20030;-64
2022/04/09 04:22:10;;;;;;;10.88;1.55;;;6.00;73.60;;;;;;9186540;19;20014;-64
2022/04/09 04:25:20;;;;;;;6.10;1.67;;;6.00;73.70;;;;;;9186662;19;20236;-64
2022/04/09 04:28:26;;;;;;;11.13;2.25;;;6.00;73.70;;;;;;9183150;19;20015;-64
2022/04/09 04:31:34;;;;;;;14.95;2.22;;;6.00;73.80;;;;;;9185665;19;20026;-65
2022/04/09 04:34:41;;;;;;;6.90;1.50;;;6.00;73.80;;;;;;9183527;19;20086;-64
2022/04/09 04:37:48;;;;;;;8.45;1.52;;;6.00;73.80;;;;;;9181632;19;20017;-64
2022/04/09 04:40:56;;;;;;;7.78;1.52;;;6.00;73.80;;;;;;9185770;19;20007;-64
2022/04/09 04:44:04;;;;;;;9.60;1.35;;;6.00;73.80;;;;;;9185375;19;20017;-63
2022/04/09 04:47:19;;;;;;;9.73;1.25;;;6.00;73.80;;;;;;9183593;19;20097;-64
2022/04/09 04:50:25;;;;;;;4.35;1.30;;;5.90;73.70;;;;;;9184441;19;20541;-64
2022/04/09 04:53:31;;;;;;;5.38;1.10;;;5.90;73.70;;;;;;9185571;19;20017;-64
2022/04/09 04:56:37;;;;;;;2.63;0.93;;;5.90;73.70;;;;;;9185280;19;20039;-63
2022/04/09 04:59:42;;;;;;;6.43;1.55;;;5.90;74.40;;;;;;9187564;19;20021;-64
2022/04/09 05:02:51;;;;;;;6.35;1.02;;;5.90;73.90;;;;;;9184316;19;20026;-63
2022/04/09 05:05:56;;;;;;;5.05;1.27;;;5.90;74.00;;;;;;9184033;19;20014;-63
2022/04/09 05:09:01;;;;;;;7.18;1.13;;;5.80;74.00;;;;;;9181162;19;20102;-63
2022/04/09 05:12:13;;;;;;;9.40;1.40;;;5.80;74.00;;;;;;9183423;19;20385;-63
2022/04/09 05:15:21;;;;;;;2.85;1.20;;;5.90;74.10;;;;;;9184772;19;20026;-64
2022/04/09 05:18:32;;;;;;;4.40;1.25;;;5.90;74.20;;;;;;9182977;19;20341;-64
2022/04/09 05:21:38;;;;;;;10.00;1.30;;;5.90;74.20;;;;;;9175601;19;20018;-64
2022/04/09 05:24:43;;;;;;;7.93;1.30;;;5.90;74.30;;;;;;9175060;19;20024;-63
2022/04/09 05:27:51;;;;;;;8.80;1.63;;;5.90;74.30;;;;;;9176221;19;20022;-65
2022/04/09 05:31:12;;;;;;;8.75;1.48;;;6.00;74.40;;;;;;9176172;19;20029;-64
2022/04/09 05:34:20;;;;;;;14.35;1.95;;;6.00;74.50;;;;;;9177228;19;20017;-63
2022/04/09 05:37:28;;;;;;;7.65;1.70;;;6.00;74.50;;;;;;9179899;19;20018;-63
2022/04/09 05:40:34;;;;;;;11.27;3.03;;;6.00;74.50;;;;;;9183804;19;20026;-63
2022/04/09 05:43:46;;;;;;;7.00;1.85;;;6.00;74.50;;;;;;9182336;19;20038;-64
2022/04/09 05:46:54;;;;;;;8.75;1.58;;;6.00;74.60;;;;;;9180655;19;20391;-63
2022/04/09 05:50:03;;;;;;;4.95;1.80;;;6.10;74.70;;;;;;9182426;19;20022;-63
2022/04/09 05:53:09;;;;;;;8.40;1.60;;;6.10;74.80;;;;;;9182765;19;20010;-63
2022/04/09 05:56:14;;;;;;;8.57;1.98;;;6.10;74.80;;;;;;9182674;19;20021;-62
2022/04/09 05:59:20;;;;;;;8.32;2.63;;;6.10;74.80;;;;;;9182619;19;20033;-62
2022/04/09 06:02:28;;;;;;;4.60;1.45;;;6.10;74.80;;;;;;9181600;19;20022;-63
2022/04/09 06:05:36;;;;;;;7.85;2.13;;;6.20;74.80;;;;;;9181906;19;20010;-63
2022/04/09 06:08:47;;;;;;;6.00;1.17;;;6.20;74.90;;;;;;9180352;19;20375;-63
2022/04/09 06:11:57;;;;;;;8.48;1.80;;;6.20;74.80;;;;;;9181687;19;20010;-64
2022/04/09 06:15:12;;;;;;;;;;;6.30;74.90;;;;;;9180758;19;20041;-63
2022/04/09 06:18:22;;;;;;;5.97;1.48;;;6.30;74.80;;;;;;9181590;19;20351;-64
2022/04/09 06:21:29;;;;;;;6.20;1.38;;;6.30;74.70;;;;;;9181862;19;20023;-64
2022/04/09 06:24:36;;;;;;;11.77;1.80;;;6.30;74.80;;;;;;9177190;19;20019;-63
2022/04/09 06:27:42;;;;;;;6.70;2.13;;;6.30;74.80;;;;;;9178496;19;20056;-64
2022/04/09 06:30:50;;;;;;;5.55;1.52;;;6.30;74.90;;;;;;9178823;19;20022;-64
2022/04/09 06:33:59;;;;;;;13.23;1.98;;;6.30;75.10;;;;;;9179687;19;20011;-63
2022/04/09 06:37:07;;;;;;;5.20;1.60;;;6.40;75.30;;;;;;9176415;19;20015;-63
2022/04/09 06:40:15;;;;;;;11.75;2.20;;;6.50;75.50;;;;;;9178642;19;20023;-62
2022/04/09 06:43:20;;;;;;;9.23;1.52;;;6.50;75.50;;;;;;9180907;19;20551;-63
2022/04/09 06:46:45;;;;;;;10.65;2.35;;;6.60;75.60;;;;;;9182132;19;20026;-63
2022/04/09 06:50:15;;;;;;;10.15;2.05;;;6.70;75.60;;;;;;9182158;19;20563;-62
2022/04/09 06:53:23;;;;;;;13.82;2.38;;;6.80;75.60;;;;;;9180592;19;20022;-64
2022/04/09 06:56:28;;;;;;;12.10;1.88;;;6.80;75.70;;;;;;9179872;19;20022;-63
2022/04/09 06:59:34;;;;;;;17.85;3.58;;;6.90;75.70;;;;;;9188399;19;20500;-64
2022/04/09 07:02:39;;;;;;;8.95;1.65;;;7.00;75.70;;;;;;9189763;19;20365;-63
2022/04/09 07:05:44;;;;;;;9.25;1.77;;;7.10;75.80;;;;;;9191026;19;20579;-63
2022/04/09 07:08:52;;;;;;;13.60;2.63;;;7.20;75.80;;;;;;9186658;19;20167;-63
2022/04/09 07:11:57;;;;;;;17.45;2.15;;;7.30;75.90;;;;;;9189395;19;20014;-63
2022/04/09 07:15:02;;;;;;;11.48;1.70;;;7.40;75.90;;;;;;9190450;19;20026;-63
2022/04/09 07:18:08;;;;;;;5.28;1.45;;;7.50;75.90;;;;;;9191237;19;20022;-63
2022/04/09 07:21:13;;;;;;;8.77;1.70;;;7.60;76.00;;;;;;9190923;19;20014;-63
2022/04/09 07:24:21;;;;;;;13.05;2.00;;;7.70;76.00;;;;;;9190192;19;20014;-64
2022/04/09 07:27:36;;;;;;;7.85;1.85;;;7.80;76.10;;;;;;9190002;19;20034;-63
2022/04/09 07:30:42;;;;;;;11.70;1.63;;;8.00;76.20;;;;;;9189994;19;20038;-64
2022/04/09 07:33:47;;;;;;;8.52;1.65;;;8.10;76.10;;;;;;9188246;19;20018;-63
2022/04/09 07:36:52;;;;;;;8.32;2.08;;;8.30;76.10;;;;;;9185021;19;20028;-64
2022/04/09 07:39:59;;;;;;;10.13;1.75;;;8.40;76.00;;;;;;9187416;19;20018;-64
2022/04/09 07:43:05;;;;;;;9.70;1.67;;;8.50;76.00;;;;;;9188136;19;20006;-63
2022/04/09 07:46:10;;;;;;;12.45;1.88;;;8.70;75.90;;;;;;9190024;19;20025;-64
2022/04/09 07:49:15;;;;;;;7.18;1.58;;;8.80;75.70;;;;;;9185496;19;20006;-63
2022/04/09 07:52:20;;;;;;;7.85;1.70;;;8.90;76.20;;;;;;9189240;19;20022;-63
2022/04/09 07:55:28;;;;;;;9.30;1.58;;;9.00;75.40;;;;;;9185952;19;20348;-63
2022/04/09 07:58:33;;;;;;;6.35;1.42;;;9.10;75.30;;;;;;9187449;19;20022;-65
2022/04/09 08:01:38;;;;;;;9.05;2.03;;;9.20;75.20;;;;;;9188807;19;20487;-63
2022/04/09 08:04:43;;;;;;;14.52;3.55;;;9.30;75.00;;;;;;9187314;19;20344;-63
2022/04/09 08:07:49;;;;;;;12.93;1.85;;;9.30;74.90;;;;;;9186924;19;20010;-63
2022/04/09 08:11:00;;;;;;;6.82;3.25;;;9.40;74.90;;;;;;9183660;19;20090;-63
2022/04/09 08:14:05;;;;;;;7.32;1.80;;;9.40;74.70;;;;;;9186586;19;20497;-63
2022/04/09 08:17:10;;;;;;;6.68;1.17;;;9.40;74.50;;;;;;9186034;19;20018;-63
2022/04/09 08:20:16;;;;;;;4.07;1.08;;;9.40;74.40;;;;;;9188435;19;20022;-63
2022/04/09 08:23:21;;;;;;;3.58;1.25;;;9.40;74.30;;;;;;9185926;19;20818;-62
2022/04/09 08:26:28;;;;;;;3.65;1.27;;;9.40;74.20;;;;;;9187935;19;20653;-62
2022/04/09 08:29:33;;;;;;;3.95;1.55;;;9.30;74.10;;;;;;9184467;19;20015;-63
2022/04/09 08:32:39;;;;;;;4.85;1.30;;;9.20;74.00;;;;;;9176977;19;20475;-63
2022/04/09 08:35:44;;;;;;;6.30;1.20;;;9.20;74.00;;;;;;9175503;19;20022;-63
2022/04/09 08:38:49;;;;;;;8.75;1.52;;;9.20;74.10;;;;;;9182145;19;20018;-63
2022/04/09 08:41:58;;;;;;;3.85;1.20;;;9.10;74.40;;;;;;9179859;19;20402;-65
2022/04/09 08:45:03;;;;;;;3.45;1.08;;;9.10;74.70;;;;;;9179036;19;20022;-63
2022/04/09 08:48:10;;;;;;;4.63;1.10;;;9.20;75.00;;;;;;9180394;19;20114;-64
2022/04/09 08:51:15;;;;;;;4.18;0.98;;;9.30;75.20;;;;;;9179478;19;20033;-63
2022/04/09 08:54:34;;;;;;;10.35;1.48;;;9.40;75.30;;;;;;9179904;19;20038;-64
2022/04/09 08:57:42;;;;;;;5.13;1.45;;;9.50;75.20;;;;;;9179561;19;20409;-63
2022/04/09 09:00:47;;;;;;;4.07;1.35;;;9.70;75.30;;;;;;9178895;19;20014;-64
2022/04/09 09:03:52;;;;;;;10.65;2.42;;;9.90;75.40;;;;;;9179264;19;20388;-65
2022/04/09 09:06:59;;;;;;;6.65;1.42;;;10.10;75.30;;;;;;9178909;19;20010;-64
2022/04/09 09:10:19;;;;;;;5.65;1.70;;;10.30;75.20;;;;;;9176789;19;20482;-65
2022/04/09 09:13:26;;;;;;;7.35;1.48;;;10.50;75.00;;;;;;9177043;19;20017;-64
2022/04/09 09:16:33;;;;;;;16.40;2.60;;;10.70;75.40;;;;;;9175459;19;20011;-64
2022/04/09 09:19:46;;;;;;;14.45;4.32;;;10.80;75.00;;;;;;9175525;19;20133;-63
2022/04/09 09:22:51;;;;;;;16.88;3.67;;;10.90;74.10;;;;;;9166820;19;20487;-64
2022/04/09 09:25:57;;;;;;;15.57;3.40;;;11.00;73.80;;;;;;9171900;19;20364;-64
2022/04/09 09:29:05;;;;;;;11.85;1.83;;;11.10;73.60;;;;;;9170135;19;20020;-64
2022/04/09 09:32:13;;;;;;;7.93;2.10;;;11.10;73.50;;;;;;9174195;19;20696;-64
2022/04/09 09:35:18;;;;;;;5.20;1.38;;;11.10;73.40;;;;;;9170809;19;20026;-63
2022/04/09 09:38:24;;;;;;;6.93;1.48;;;11.20;73.50;;;;;;9173897;19;20458;-65
2022/04/09 09:41:29;;;;;;;3.58;1.38;;;11.20;73.40;;;;;;9172573;19;20014;-64
2022/04/09 09:44:45;;;;;;;7.13;1.48;;;11.30;73.40;;;;;;9171690;19;20014;-64
2022/04/09 09:48:02;;;;;;;8.70;1.48;;;11.30;73.20;;;;;;9173464;19;20023;-64
2022/04/09 09:51:08;;;;;;;5.75;1.38;;;11.30;73.10;;;;;;9175005;19;20021;-65
2022/04/09 09:54:14;;;;;;;9.10;1.73;;;11.30;73.10;;;;;;9177632;19;20022;-65
2022/04/09 09:57:22;;;;;;;7.05;1.40;;;11.30;72.90;;;;;;9172938;19;20015;-66
2022/04/09 10:00:30;;;;;;;8.88;1.80;;;11.30;72.70;;;;;;9172741;19;20363;-64
2022/04/09 10:03:36;;;;;;;5.43;0.95;;;11.30;72.50;;;;;;9172224;19;20018;-64
2022/04/09 10:06:42;;;;;;;2.67;0.88;;;11.20;73.00;;;;;;9173011;19;20010;-65
2022/04/09 10:09:49;;;;;;;2.78;0.52;;;11.10;72.30;;;;;;9174667;19;20015;-64
2022/04/09 10:12:57;;;;;;;3.33;0.70;;;10.90;72.90;;;;;;9175948;19;20018;-64
2022/04/09 10:16:12;;;;;;;3.38;1.50;;;10.80;72.30;;;;;;9173834;19;20105;-65
2022/04/09 10:19:20;;;;;;;1.88;0.77;;;10.70;72.40;;;;;;9171768;19;20051;-65
2022/04/09 10:22:27;;;;;;;7.93;1.10;;;10.70;72.70;;;;;;9173829;19;20022;-64
2022/04/09 10:25:34;;;;;;;7.25;1.42;;;10.60;72.90;;;;;;9170961;19;20022;-66
2022/04/09 10:28:40;;;;;;;9.63;1.67;;;10.50;73.20;;;;;;9174839;19;20010;-65
2022/04/09 10:31:53;;;;;;;11.82;1.83;;;10.50;73.50;;;;;;9173963;19;20010;-65
2022/04/09 10:35:00;;;;;;;6.47;1.30;;;10.50;73.60;;;;;;9175058;19;20657;-66
2022/04/09 10:38:18;;;;;;;13.70;1.73;;;10.60;73.70;;;;;;9172134;19;20515;-65
2022/04/09 10:41:27;;;;;;;7.70;1.33;;;10.70;73.60;;;;;;9177268;19;20014;-65
2022/04/09 10:44:37;;;;;;;3.25;0.93;;;10.80;73.50;;;;;;9175418;19;20011;-65
2022/04/09 10:48:10;;;;;;;4.70;0.95;;;10.90;73.40;;;;;;9177879;19;20018;-65
2022/04/09 10:51:16;;;;;;;4.03;1.33;;;11.00;73.10;;;;;;9172548;19;20018;-65
2022/04/09 10:54:23;;;;;;;5.30;1.08;;;11.10;73.10;;;;;;9174591;19;20025;-65
2022/04/09 10:57:28;;;;;;;11.85;1.30;;;11.20;72.80;;;;;;9175498;19;20014;-65
2022/04/09 11:00:37;;;;;;;9.70;1.00;;;11.20;72.60;;;;;;9174275;19;20353;-65
2022/04/09 11:03:44;;;;;;;6.38;1.10;;;11.20;72.40;;;;;;9175960;19;20022;-64
2022/04/09 11:07:03;;;;;;;8.50;1.15;;;11.20;72.30;;;;;;9172970;19;20021;-65
2022/04/09 11:10:08;;;;;;;7.55;1.60;;;11.20;72.10;;;;;;9174691;19;20021;-65
2022/04/09 11:13:13;;;;;;;6.20;1.10;;;11.20;72.30;;;;;;9175020;19;20376;-66
2022/04/09 11:16:18;;;;;;;5.10;1.15;;;11.20;72.30;;;;;;9175281;19;20014;-67
2022/04/09 11:19:26;;;;;;;7.65;1.10;;;11.30;72.40;;;;;;9173186;19;20599;-65
2022/04/09 11:22:36;;;;;;;6.32;1.35;;;11.30;72.40;;;;;;9172788;19;20018;-65
2022/04/09 11:25:44;;;;;;;3.97;0.98;;;11.40;72.50;;;;;;9175210;19;20046;-65
2022/04/09 11:28:50;;;;;;;3.35;1.10;;;11.40;72.20;;;;;;9172977;19;20523;-65
2022/04/09 11:31:55;;;;;;;1.10;0.30;;;11.40;72.00;;;;;;9172861;19;20043;-66
2022/04/09 11:35:06;;;;;;;1.35;0.50;;;11.40;71.90;;;;;;9175439;19;20014;-65
2022/04/09 11:38:12;;;;;;;7.28;0.85;;;11.30;71.70;;;;;;9170678;19;20017;-65
2022/04/09 11:41:22;;;;;;;6.47;1.70;;;11.30;71.70;;;;;;9173158;19;20483;-65
2022/04/09 11:44:30;;;;;;;5.35;1.40;;;11.20;71.70;;;;;;9172458;19;20018;-66
2022/04/09 11:47:35;;;;;;;6.35;1.40;;;11.20;71.80;;;;;;9181418;19;20662;-71
2022/04/09 11:50:42;;;;;;;6.15;0.80;;;11.10;72.00;;;;;;9182830;19;20103;-70
2022/04/09 11:53:47;;;;;;;4.35;0.82;;;11.10;72.20;;;;;;9187256;19;20097;-72
2022/04/09 11:56:52;;;;;;;8.30;1.27;;;11.10;72.40;;;;;;9182236;19;20018;-65
2022/04/09 11:59:58;;;;;;;8.68;1.10;;;11.10;72.50;;;;;;9183307;19;20034;-65
2022/04/09 12:03:16;;;;;;;8.48;1.25;;;11.20;72.60;;;;;;9186051;19;20018;-65
2022/04/09 12:06:25;;;;;;;10.05;1.50;;;11.30;72.70;;;;;;9188330;19;20429;-65
2022/04/09 12:09:31;;;;;;;11.30;2.03;;;11.40;72.50;;;;;;9183734;19;20018;-66
2022/04/09 12:12:39;;;;;;;6.70;1.83;;;11.40;72.50;;;;;;9186001;19;20011;-65
2022/04/09 12:15:45;;;;;;;6.13;1.95;;;11.50;72.30;;;;;;9188944;19;20022;-65
2022/04/09 12:18:51;;;;;;;5.50;1.48;;;11.60;72.10;;;;;;9183862;19;20478;-65
2022/04/09 12:22:12;;;;;;;9.65;1.73;;;11.60;71.70;;;;;;9188845;19;20014;-65
2022/04/09 12:25:34;;;;;;;3.53;0.90;;;11.60;71.50;;;;;;9188018;19;20066;-66
2022/04/09 12:28:39;;;;;;;3.85;1.02;;;11.50;71.60;;;;;;9188222;19;20018;-66
2022/04/09 12:31:46;;;;;;;2.83;0.70;;;11.40;71.60;;;;;;9185553;19;20015;-65
2022/04/09 12:34:55;;;;;;;4.65;0.85;;;11.40;71.80;;;;;;9185715;19;20348;-65
2022/04/09 12:38:03;;;;;;;2.80;0.60;;;11.30;72.00;;;;;;9184044;19;20033;-65
2022/04/09 12:41:08;;;;;;;5.95;0.75;;;11.30;72.20;;;;;;9186970;19;20026;-65
2022/04/09 12:44:26;;;;;;;2.28;0.70;;;11.30;72.10;;;;;;9184266;19;20018;-65
2022/04/09 12:47:31;;;;;;;4.18;1.08;;;11.40;72.20;;;;;;9185375;19;20037;-65
2022/04/09 12:50:38;;;;;;;7.30;1.23;;;11.40;72.20;;;;;;9184228;19;20036;-65
2022/04/09 12:53:48;;;;;;;4.72;1.05;;;11.50;72.20;;;;;;9186078;19;20021;-65
2022/04/09 12:56:53;;;;;;;6.35;1.55;;;11.60;72.00;;;;;;9185995;19;20006;-64
2022/04/09 12:59:59;;;;;;;4.57;1.63;;;11.60;71.70;;;;;;9186605;19;20006;-64
2022/04/09 13:03:04;;;;;;;2.63;1.00;;;11.50;71.40;;;;;;9184240;19;20007;-65
2022/04/09 13:06:09;;;;;;;3.75;1.10;;;11.40;71.30;;;;;;9185323;19;20029;-64
2022/04/09 13:09:17;;;;;;;5.28;1.38;;;11.30;71.20;;;;;;9182912;19;20020;-64
2022/04/09 13:12:22;;;;;;;3.72;0.93;;;11.20;71.20;;;;;;9184256;19;20025;-64
2022/04/09 13:15:27;;;;;;;3.88;1.50;;;11.10;71.30;;;;;;9179215;19;20026;-65
2022/04/09 13:18:32;;;;;;;6.05;0.90;;;11.00;71.30;;;;;;9184060;19;20630;-65
2022/04/09 13:21:37;;;;;;;7.53;1.67;;;10.80;71.40;;;;;;9184224;19;20010;-64
2022/04/09 13:24:44;;;;;;;5.68;1.33;;;10.70;71.60;;;;;;9182374;19;20015;-65
2022/04/09 13:27:52;;;;;;;8.65;1.08;;;10.60;71.70;;;;;;9184706;19;20010;-65
2022/04/09 13:30:57;;;;;;;9.85;1.88;;;10.50;71.70;;;;;;9183117;19;20475;-63
2022/04/09 13:34:03;;;;;;;8.80;1.02;;;10.30;71.90;;;;;;9181746;19;20026;-63
2022/04/09 13:37:08;;;;;;;6.32;1.20;;;10.20;72.10;;;;;;9172701;19;20021;-63
2022/04/09 13:40:16;;;;;;;8.57;1.48;;;10.10;72.30;;;;;;9177019;19;20015;-63
2022/04/09 13:43:21;;;;;;;3.53;0.70;;;10.10;72.40;;;;;;9177501;19;20503;-64
2022/04/09 13:46:26;;;;;;;5.68;1.20;;;10.00;72.40;;;;;;9177675;19;20015;-63
2022/04/09 13:49:31;;;;;;;3.80;0.82;;;10.00;72.50;;;;;;9175749;19;20023;-64
2022/04/09 13:52:36;;;;;;;5.32;1.23;;;9.90;72.60;;;;;;9176980;19;20014;-64
2022/04/09 13:55:45;;;;;;;4.72;1.40;;;9.90;72.60;;;;;;9177686;19;20637;-63
2022/04/09 13:58:51;;;;;;;10.05;1.17;;;9.90;72.60;;;;;;9178045;19;20015;-64
2022/04/09 14:01:56;;;;;;;5.10;1.00;;;9.90;72.70;;;;;;9176751;19;20015;-63
2022/04/09 14:05:03;;;;;;;7.28;0.95;;;9.90;72.80;;;;;;9177004;19;20007;-64
2022/04/09 14:08:09;;;;;;;4.82;1.38;;;10.00;72.70;;;;;;9173786;19;20114;-64
2022/04/09 14:11:16;;;;;;;5.32;1.40;;;10.00;72.60;;;;;;9175480;19;20022;-64
2022/04/09 14:14:24;;;;;;;4.43;1.90;;;10.00;72.50;;;;;;9176212;19;20485;-64
2022/04/09 14:17:29;;;;;;;7.15;1.40;;;9.90;72.20;;;;;;9177628;19;20014;-64
2022/04/09 14:20:34;;;;;;;3.20;0.57;;;9.80;71.90;;;;;;9177129;19;20037;-64
2022/04/09 14:23:39;;;;;;;4.28;1.20;;;9.70;71.70;;;;;;9176302;19;20015;-65
2022/04/09 14:26:47;;;;;;;6.88;1.50;;;9.60;71.60;;;;;;9175651;19;20041;-65
2022/04/09 14:29:52;;;;;;;3.97;1.38;;;9.40;71.70;;;;;;9176543;19;20055;-65
2022/04/09 14:32:57;;;;;;;2.67;0.85;;;9.30;71.90;;;;;;9174427;19;20014;-65
2022/04/09 14:36:02;;;;;;;8.30;1.33;;;9.20;72.00;;;;;;9169498;19;20014;-65
2022/04/09 14:39:07;;;;;;;5.63;1.13;;;9.10;72.20;;;;;;9175284;19;20048;-65
2022/04/09 14:42:15;;;;;;;5.25;2.10;;;9.00;72.40;;;;;;9176351;19;20822;-65
2022/04/09 14:45:20;;;;;;;7.25;1.63;;;9.00;72.60;;;;;;9173767;19;20018;-65
2022/04/09 14:48:25;;;;;;;8.15;1.42;;;8.90;72.70;;;;;;9175996;19;20014;-65
2022/04/09 14:51:30;;;;;;;5.47;1.17;;;8.90;72.80;;;;;;9173796;19;20030;-64
2022/04/09 14:54:35;;;;;;;7.65;1.27;;;8.90;73.00;;;;;;9173737;19;20011;-64
2022/04/09 14:57:43;;;;;;;6.80;1.25;;;8.90;73.20;;;;;;9174562;19;20014;-64
2022/04/09 15:00:48;;;;;;;6.53;1.80;;;8.90;73.20;;;;;;9172981;19;20022;-67
2022/04/09 15:03:52;;;;;;;6.72;1.50;;;8.90;73.20;;;;;;9170005;19;20495;-64
2022/04/09 15:06:57;;;;;;;5.65;1.23;;;9.00;73.30;;;;;;9172970;19;20030;-64
2022/04/09 15:10:03;;;;;;;8.93;1.58;;;9.00;73.30;;;;;;9172063;19;20023;-64
2022/04/09 15:13:11;;;;;;;5.68;1.10;;;9.10;73.40;;;;;;9172537;19;20026;-64
2022/04/09 15:16:16;;;;;;;8.23;1.65;;;9.20;73.40;;;;;;9174190;19;20098;-64
2022/04/09 15:19:21;;;;;;;9.70;1.50;;;9.20;73.30;;;;;;9175502;19;20014;-64
2022/04/09 15:22:27;;;;;;;8.68;1.58;;;9.30;73.30;;;;;;9184575;19;20078;-64
2022/04/09 15:25:33;;;;;;;7.25;1.40;;;9.30;73.10;;;;;;9181767;19;20018;-64
2022/04/09 15:28:41;;;;;;;5.43;1.58;;;9.30;72.80;;;;;;9180229;19;20037;-64
2022/04/09 15:31:46;;;;;;;4.68;1.23;;;9.20;72.40;;;;;;9182681;19;20025;-65
2022/04/09 15:34:52;;;;;;;7.40;1.20;;;9.10;72.20;;;;;;9181892;19;20026;-64
2022/04/09 15:37:57;;;;;;;3.30;1.15;;;9.00;72.10;;;;;;9177923;19;20015;-64
2022/04/09 15:41:03;;;;;;;9.43;1.85;;;8.80;72.10;;;;;;9182119;19;20018;-64
2022/04/09 15:44:11;;;;;;;9.93;1.23;;;8.70;72.20;;;;;;9182714;19;20023;-64
2022/04/09 15:47:16;;;;;;;11.63;1.88;;;8.60;72.40;;;;;;9181138;19;20606;-64
2022/04/09 15:50:22;;;;;;;9.15;1.98;;;8.50;72.50;;;;;;9181223;19;20409;-64
2022/04/09 15:53:27;;;;;;;8.18;1.85;;;8.40;72.70;;;;;;9179738;19;20355;-64
2022/04/09 15:56:32;;;;;;;6.05;2.25;;;8.30;72.90;;;;;;9182090;19;20017;-64
2022/04/09 15:59:40;;;;;;;8.55;1.55;;;8.20;73.00;;;;;;9179582;19;20022;-64
2022/04/09 16:02:46;;;;;;;9.95;1.85;;;8.20;73.30;;;;;;9179761;19;20018;-64
2022/04/09 16:05:51;;;;;;;7.43;1.35;;;8.20;73.40;;;;;;9181858;19;20090;-64
2022/04/09 16:08:56;;;;;;;9.38;1.65;;;8.10;73.40;;;;;;9179774;19;20085;-64
2022/04/09 16:12:01;;;;;;;8.32;1.35;;;8.10;73.60;;;;;;9179724;19;20025;-64
2022/04/09 16:15:11;;;;;;;7.60;1.63;;;8.10;73.70;;;;;;9180839;19;20029;-64
2022/04/09 16:18:16;;;;;;;5.88;2.15;;;8.10;73.70;;;;;;9182067;19;20358;-64
2022/04/09 16:21:22;;;;;;;6.72;1.70;;;8.10;73.60;;;;;;9182511;19;20026;-64
2022/04/09 16:24:27;;;;;;;7.28;1.55;;;8.10;73.60;;;;;;9177729;19;20022;-63